Flight Track Log - Related Links

Times and Time Zones

All times are in EDT time to prevent confusion due to time zone crossing. See the C-GIWP flight status page for this flight to view local times or setup timezone preferences in your user account.

Time Position Orientation Groundspeed Altitude Reporting Facility
EDT Latitude Longitude Course Direction KTS MPH feet Rate Location/Type
Mon 03:17:03 PM 45.4500 -73.7167 35° Northeast 30 35 100  Level Montreal Center
Mon 03:19:03 PM 45.4667 -73.7000 35° Northeast 100 115 700 400 Climbing Montreal Center
Mon 03:20:03 PM 45.5000 -73.7500 314° West 130 150 1,300 550 Climbing Montreal Center
Mon 03:21:03 PM 45.5333 -73.7500 360° North 130 150 1,800 550 Climbing Montreal Center
Mon 03:22:03 PM 45.5667 -73.7833 325° Northwest 130 150 2,400 600 Climbing Montreal Center
Mon 03:23:03 PM 45.5667 -73.8333 270° West 130 150 3,000 600 Climbing Montreal Center
Mon 03:24:03 PM 45.5833 -73.8833 295° West 130 150 3,600 550 Climbing Montreal Center
Mon 03:25:03 PM 45.5667 -73.9333 245° Southwest 130 150 4,100 550 Climbing Montreal Center
Mon 03:26:03 PM 45.5667 -73.9833 270° West 130 150 4,700 450 Climbing Montreal Center
Mon 03:27:03 PM 45.5500 -74.0333 245° Southwest 130 150 5,000 400 Climbing Montreal Center
Mon 03:29:03 PM 45.5500 -74.1500 270° West 140 161 5,900 467 Climbing Montreal Center
Mon 03:30:03 PM 45.5500 -74.2000 270° West 140 161 6,400 500 Climbing Montreal Center
Mon 03:31:03 PM 45.5333 -74.2500 245° Southwest 140 161 6,900 467 Climbing Montreal Center
Mon 03:33:03 PM 45.5167 -74.3667 259° West 140 161 7,800 333 Climbing Montreal Center
Mon 03:34:03 PM 45.5167 -74.4167 270° West 150 173 7,900 50 Climbing Montreal Center
Mon 03:35:03 PM 45.5000 -74.4833 250° West 160 184 7,900  Level Montreal Center
Mon 03:36:03 PM 45.4667 -74.5333 226° Southwest 160 184 7,900  Level Montreal Center
Mon 03:37:03 PM 45.4500 -74.5833 245° Southwest 150 173 7,900  Level Montreal Center
Mon 03:38:03 PM 45.4333 -74.6333 245° Southwest 150 173 7,900  Level Montreal Center
Mon 03:39:03 PM 45.4000 -74.7000 235° Southwest 150 173 7,900  Level Montreal Center
Mon 03:40:03 PM 45.3833 -74.7500 245° Southwest 150 173 7,900  Level Montreal Center
Mon 03:41:03 PM 45.3500 -74.8000 227° Southwest 150 173 7,900  Level Montreal Center
Mon 03:42:03 PM 45.3333 -74.8500 245° Southwest 150 173 7,900  Level Montreal Center
Mon 03:43:03 PM 45.3167 -74.9000 245° Southwest 150 173 7,900 50 Level Montreal Center
Mon 03:44:03 PM 45.2833 -74.9500 227° Southwest 150 173 8,000 50 Climbing Montreal Center
Mon 03:45:03 PM 45.2667 -75.0000 245° Southwest 160 184 8,000  Level Montreal Center
Mon 03:46:03 PM 45.2500 -75.0333 235° Southwest 150 173 8,000  Level Montreal Center
Mon 03:47:03 PM 45.2167 -75.0833 227° Southwest 150 173 8,000  Level Montreal Center
Mon 03:48:03 PM 45.2000 -75.1667 254° West 150 173 8,000  Level Montreal Center
Mon 03:49:03 PM 45.1833 -75.2000 235° Southwest 150 173 8,000  Level Montreal Center
Mon 03:50:03 PM 45.1500 -75.2500 227° Southwest 150 173 8,000  Level Montreal Center
Mon 03:51:03 PM 45.1333 -75.3000 245° Southwest 150 173 8,000  Level Montreal Center
Mon 03:52:03 PM 45.1167 -75.3500 245° Southwest 150 173 8,000  Level Montreal Center
Mon 03:53:03 PM 45.1000 -75.4000 245° Southwest 150 173 8,000  Level Montreal Center
Mon 03:54:03 PM 45.0667 -75.4500 227° Southwest 150 173 8,000  Level Montreal Center
Mon 03:55:03 PM 45.0167 -75.4667 193° South 150 173 8,000  Level Montreal Center
Mon 03:56:03 PM 44.9833 -75.5000 215° Southwest 150 173 8,000  Level Montreal Center
Mon 03:57:03 PM 44.9333 -75.5000 180° South 150 173 8,000  Level Montreal Center
Mon 03:58:03 PM 44.9000 -75.5000 180° South 150 173 8,000  Level Montreal Center
Mon 03:59:03 PM 44.8500 -75.4667 155° Southeast 150 173 8,000  Level Montreal Center
Mon 04:00:03 PM 44.8167 -75.5000 215° Southwest 150 173 8,000  Level Montreal Center
Mon 04:01:03 PM 44.7833 -75.5167 200° South 150 173 8,000  Level Montreal Center
Mon 04:02:03 PM 44.7500 -75.5667 227° Southwest 150 173 8,000  Level Montreal Center
Mon 04:03:03 PM 44.7167 -75.5833 200° South 150 173 8,000  Level Montreal Center
Mon 04:04:03 PM 44.6833 -75.6167 215° Southwest 150 173 8,000  Level Montreal Center
Mon 04:05:03 PM 44.6500 -75.6667 227° Southwest 140 161 8,000  Level Montreal Center
Mon 04:06:03 PM 44.6167 -75.7167 227° Southwest 150 173 8,000  Level Montreal Center
Mon 04:07:03 PM 44.5833 -75.7333 200° South 150 173 8,000  Level Montreal Center
Mon 04:08:03 PM 44.5500 -75.7833 227° Southwest 150 173 8,000  Level Montreal Center
Mon 04:09:03 PM 44.5333 -75.8333 245° Southwest 150 173 8,000  Level Montreal Center
Mon 04:10:03 PM 44.5167 -75.8667 235° Southwest 140 161 8,000  Level Montreal Center
Mon 04:11:03 PM 44.5000 -75.9167 245° Southwest 140 161 8,000  Level Montreal Center
Mon 04:12:03 PM 44.4833 -75.9667 245° Southwest 150 173 8,000  Level Montreal Center
Mon 04:13:03 PM 44.4667 -76.0333 251° West 150 173 8,000  Level Montreal Center
Mon 04:14:03 PM 44.4333 -76.0667 216° Southwest 150 173 8,000  Level Montreal Center
Mon 04:15:03 PM 44.4167 -76.1167 245° Southwest 140 161 8,000 150 Level Montreal Center
Mon 04:16:03 PM 44.4333 -76.1500 305° West 120 138 8,300 100 Climbing Montreal Center
Mon 04:17:03 PM 44.4500 -76.2000 295° West 140 161 8,200 -50 Descending Montreal Center
Mon 04:18:03 PM 44.4667 -76.2500 295° West 140 161 8,200  Level Montreal Center
Mon 04:19:03 PM 44.4500 -76.3000 245° Southwest 140 161 8,200  Level Montreal Center
Mon 04:20:03 PM 44.4333 -76.3667 251° West 140 161 8,200 -50 Level Montreal Center
Mon 04:21:03 PM 44.4333 -76.4167 270° West 150 173 8,100 -50 Descending Montreal Center
Mon 04:22:03 PM 44.4333 -76.4833 270° West 140 161 8,100  Level Montreal Center
Mon 04:23:03 PM 44.4333 -76.5333 270° West 150 173 8,100 -50 Level Montreal Center
Mon 04:24:03 PM 44.4167 -76.5833 245° Southwest 140 161 8,000  Descending Montreal Center
Mon 04:26:03 PM 44.3833 -76.6667 241° Southwest 140 161 8,100  Climbing Montreal Center
Mon 04:27:03 PM 44.3833 -76.7333 270° West 140 161 8,000 -50 Descending Montreal Center
Mon 04:28:03 PM 44.3667 -76.7833 245° Southwest 140 161 8,000  Level Montreal Center
Mon 04:29:03 PM 44.3500 -76.8333 245° Southwest 150 173 8,000  Level Montreal Center
Mon 04:30:03 PM 44.3333 -76.9000 251° West 150 173 8,000  Level Montreal Center
Mon 04:31:03 PM 44.3167 -76.9500 245° Southwest 150 173 8,000  Level Montreal Center
Mon 04:32:03 PM 44.3000 -77.0000 245° Southwest 150 173 8,000 50 Level Montreal Center
Mon 04:33:03 PM 44.2833 -77.0500 245° Southwest 150 173 8,100  Climbing Montreal Center
Mon 04:34:03 PM 44.2833 -77.1167 270° West 150 173 8,000 -50 Descending Montreal Center
Mon 04:35:03 PM 44.2500 -77.1667 227° Southwest 140 161 8,000  Level Montreal Center
Mon 04:38:32 PM 44.2167 -77.3500 256° West 160 184 8,000 22 Level Montreal Center
Mon 04:39:32 PM 44.2000 -77.3833 235° Southwest 150 173 8,100  Climbing Montreal Center
Mon 04:40:32 PM 44.2000 -77.4333 270° West 140 161 8,000 -50 Descending Montreal Center
Mon 04:41:32 PM 44.1833 -77.4833 245° Southwest 140 161 8,000  Level Montreal Center
Mon 04:42:32 PM 44.1833 -77.5500 270° West 140 161 8,000  Level Montreal Center
Mon 04:43:32 PM 44.1667 -77.6000 245° Southwest 140 161 8,000 50 Level Montreal Center
Mon 04:44:32 PM 44.1667 -77.6500 270° West 140 161 8,100  Climbing Montreal Center
Mon 04:45:32 PM 44.1667 -77.7167 270° West 140 161 8,000 -50 Descending Montreal Center
Mon 04:46:32 PM 44.1667 -77.7667 270° West 140 161 8,000  Level Montreal Center
Mon 04:47:32 PM 44.1667 -77.8333 270° West 140 161 8,000  Level Montreal Center
Mon 04:48:32 PM 44.1667 -77.8833 270° West 140 161 8,000  Level Montreal Center
Mon 04:49:32 PM 44.1667 -77.9333 270° West 140 161 8,000  Level Montreal Center
Mon 04:50:32 PM 44.1667 -78.0000 270° West 150 173 8,000  Level Montreal Center
Mon 04:51:32 PM 44.1667 -78.0500 270° West 150 173 8,000  Level Montreal Center
Mon 04:52:32 PM 44.1667 -78.1167 270° West 150 173 8,000 -50 Level Montreal Center
Mon 04:53:32 PM 44.1667 -78.1667 270° West 150 173 7,900 -50 Descending Montreal Center
Mon 04:54:32 PM 44.1667 -78.2333 270° West 150 173 7,900 50 Level Montreal Center
Mon 04:55:32 PM 44.1667 -78.2833 270° West 140 161 8,000  Climbing Montreal Center
Mon 04:56:32 PM 44.1667 -78.3167 270° West 150 173 7,900  Descending Montreal Center
Mon 04:57:32 PM 44.1667 -78.4000 270° West 140 161 8,000 50 Climbing Montreal Center
Mon 04:58:32 PM 44.1667 -78.4333 270° West 140 161 8,000 -200 Level Montreal Center
Mon 04:59:32 PM 44.1500 -78.5167 254° West 150 173 7,600 -450 Descending Montreal Center
Mon 05:00:32 PM 44.1500 -78.5500 270° West 160 184 7,100 -450 Descending Montreal Center
Mon 05:01:32 PM 44.1333 -78.6333 254° West 170 196 6,700 -450 Descending Montreal Center
Mon 05:02:32 PM 44.1333 -78.7000 270° West 170 196 6,200 -450 Descending Montreal Center
Mon 05:03:32 PM 44.1333 -78.7667 270° West 170 196 5,800 -400 Descending Montreal Center
Mon 05:04:32 PM 44.1333 -78.8333 270° West 170 196 5,400 -400 Descending Montreal Center
Mon 05:05:32 PM 44.1333 -78.8833 270° West 160 184 5,000 -400 Descending Montreal Center
Mon 05:06:32 PM 44.1333 -78.9500 270° West 160 184 4,600 -650 Descending Montreal Center
Mon 05:07:32 PM 44.1000 -79.0000 227° Southwest 170 196 3,700 -850 Descending Montreal Center
Mon 05:08:32 PM 44.0500 -79.0167 193° South 190 219 2,900 -353 Descending Montreal Center
Mon 05:09:31 PM 44.0167 -79.0667 227° Southwest 170 196 3,000 45 Climbing Montreal Center
Mon 05:10:44 PM 43.9667 -79.1000 206° Southwest 160 184 3,000 -295 Level Montreal Center
Mon 05:11:33 PM 43.9333 -79.1000 180° South 170 196 2,400 -661 Descending Toronto Center
Mon 05:12:33 PM 43.8833 -79.1500 216° Southwest 190 219 1,800 -100 Descending Toronto Center
Mon 05:13:33 PM 43.8500 -79.1667 200° South 160 184 2,200 -50 Climbing Toronto Center
Mon 05:14:33 PM 43.8333 -79.2167 245° Southwest 130 150 1,700 -350 Descending Toronto Center
Mon 05:15:33 PM 43.8333 -79.2667 270° West 120 138 1,500 -200 Descending Toronto Center
Mon 05:16:33 PM 43.8333 -79.3167 270° West 120 138 1,300 -250 Descending Toronto Center
Mon 05:17:33 PM 43.8333 -79.3333 270° West 120 138 1,000 -300 Descending Toronto Center

Login

Don't have an account? Register now (free) for customized features, flight alerts, and more!